createdAt,value
2018-08-17T00:00:18.800Z,16.51
2018-08-17T00:01:18.884Z,16.60
2018-08-17T00:02:18.802Z,16.50
2018-08-17T00:03:18.768Z,16.50
2018-08-17T00:04:18.737Z,16.50
2018-08-17T00:05:18.754Z,16.44
2018-08-17T00:06:18.698Z,16.40
2018-08-17T00:07:18.704Z,16.34
2018-08-17T00:08:18.674Z,16.34
2018-08-17T00:09:18.872Z,16.37
2018-08-17T00:10:18.698Z,16.45
2018-08-17T00:11:18.658Z,16.51
2018-08-17T00:12:18.665Z,16.63
2018-08-17T00:13:18.648Z,16.78
2018-08-17T00:14:18.637Z,16.72
2018-08-17T00:15:18.604Z,16.72
2018-08-17T00:16:18.707Z,16.81
2018-08-17T00:17:18.608Z,16.84
2018-08-17T00:18:18.597Z,16.77
2018-08-17T00:19:18.636Z,16.77
2018-08-17T00:20:18.581Z,16.84
2018-08-17T00:21:18.562Z,16.77
2018-08-17T00:22:18.540Z,16.77
2018-08-17T00:23:18.530Z,16.67
2018-08-17T00:24:18.562Z,16.62
2018-08-17T00:25:18.503Z,16.57
2018-08-17T00:26:18.550Z,16.51
2018-08-17T00:27:18.469Z,16.50
2018-08-17T00:28:18.521Z,16.51
2018-08-17T00:29:18.459Z,16.42
2018-08-17T00:30:18.489Z,16.52
2018-08-17T00:31:18.460Z,16.51
2018-08-17T00:32:18.439Z,16.59
2018-08-17T00:33:18.472Z,16.69
2018-08-17T00:34:18.410Z,16.85
2018-08-17T00:35:18.393Z,16.96
2018-08-17T00:36:18.417Z,17.38
2018-08-17T00:37:18.409Z,18.11
2018-08-17T00:38:18.363Z,18.29
2018-08-17T00:39:18.379Z,18.60
2018-08-17T00:40:18.352Z,18.78
2018-08-17T00:41:18.319Z,19.12
2018-08-17T00:42:18.342Z,19.21
2018-08-17T00:43:18.376Z,19.21
2018-08-17T00:44:18.303Z,19.49
2018-08-17T00:45:18.317Z,19.45
2018-08-17T00:46:18.266Z,19.40
2018-08-17T00:47:18.279Z,19.50
2018-08-17T00:48:18.251Z,19.39
2018-08-17T00:49:18.245Z,19.58
2018-08-17T00:50:18.288Z,19.43
2018-08-17T00:51:18.236Z,19.46
2018-08-17T00:52:18.264Z,19.50
2018-08-17T00:53:18.218Z,19.57
2018-08-17T00:54:18.188Z,19.62
2018-08-17T00:55:18.235Z,19.65
2018-08-17T00:56:18.154Z,19.64
2018-08-17T00:57:18.144Z,19.62
2018-08-17T00:58:18.176Z,19.60
2018-08-17T00:59:18.137Z,19.50
2018-08-17T01:00:18.130Z,19.50
2018-08-17T01:01:18.123Z,19.50
2018-08-17T01:02:18.084Z,19.58
2018-08-17T01:03:18.105Z,19.40
2018-08-17T01:04:18.073Z,19.43
2018-08-17T01:05:18.065Z,19.32
2018-08-17T01:06:18.068Z,19.47
2018-08-17T01:07:18.032Z,19.53
2018-08-17T01:08:18.035Z,19.61
2018-08-17T01:09:18.039Z,19.65
2018-08-17T01:10:18.010Z,19.64
2018-08-17T01:11:18.025Z,19.62
2018-08-17T01:12:17.986Z,19.55
2018-08-17T01:13:18.000Z,19.55
2018-08-17T01:14:17.957Z,19.58
2018-08-17T01:15:17.946Z,19.53
2018-08-17T01:16:18.007Z,19.55
2018-08-17T01:17:17.931Z,19.50
2018-08-17T01:18:17.952Z,19.42
2018-08-17T01:19:17.937Z,19.17
2018-08-17T01:20:17.912Z,18.97
2018-08-17T01:21:17.937Z,18.90
2018-08-17T01:22:17.871Z,18.62
2018-08-17T01:23:17.880Z,18.50
2018-08-17T01:24:17.896Z,18.25
2018-08-17T01:25:17.842Z,18.11
2018-08-17T01:26:17.856Z,18.01
2018-08-17T01:27:17.843Z,17.76
2018-08-17T01:28:17.829Z,17.63
2018-08-17T01:29:17.859Z,17.60
2018-08-17T01:30:17.788Z,17.51
2018-08-17T01:31:17.811Z,17.63
2018-08-17T01:32:17.761Z,17.89
2018-08-17T01:33:17.750Z,18.16
2018-08-17T01:34:17.785Z,18.32
2018-08-17T01:35:17.745Z,18.38
2018-08-17T01:36:17.786Z,18.41
2018-08-17T01:37:17.729Z,18.41
2018-08-17T01:38:17.730Z,18.39
2018-08-17T01:39:17.684Z,18.29
2018-08-17T01:40:17.711Z,18.14
2018-08-17T01:41:17.678Z,18.02
2018-08-17T01:42:17.688Z,17.87
2018-08-17T01:43:17.650Z,17.77
2018-08-17T01:44:17.652Z,17.68
2018-08-17T01:45:17.621Z,17.54
2018-08-17T01:46:17.784Z,17.32
2018-08-17T01:47:17.626Z,17.27
2018-08-17T01:48:17.637Z,17.35
2018-08-17T01:49:17.591Z,17.17
2018-08-17T01:50:17.606Z,17.00
2018-08-17T01:51:17.607Z,16.88
2018-08-17T01:52:17.573Z,16.85
2018-08-17T01:53:17.529Z,16.72
2018-08-17T01:54:17.515Z,16.59
2018-08-17T01:55:17.526Z,16.36
2018-08-17T01:56:17.543Z,16.29
2018-08-17T01:57:17.699Z,16.14
2018-08-17T01:58:17.498Z,16.10
2018-08-17T01:59:17.472Z,15.95
2018-08-17T02:00:17.464Z,15.98
2018-08-17T02:01:17.642Z,15.89
2018-08-17T02:02:17.514Z,15.73
2018-08-17T02:03:17.448Z,15.62
2018-08-17T02:04:17.426Z,15.64
2018-08-17T02:05:17.456Z,15.62
2018-08-17T02:06:17.470Z,15.56
2018-08-17T02:07:17.411Z,15.46
2018-08-17T02:08:17.371Z,15.46
2018-08-17T02:09:17.370Z,15.40
2018-08-17T02:10:17.338Z,15.41
2018-08-17T02:11:17.371Z,15.41
2018-08-17T02:12:17.358Z,15.35
2018-08-17T02:13:17.317Z,15.31
2018-08-17T02:14:17.329Z,15.33
2018-08-17T02:15:17.301Z,15.25
2018-08-17T02:16:17.320Z,15.13
2018-08-17T02:17:17.283Z,15.16
2018-08-17T02:18:17.271Z,15.05
2018-08-17T02:19:17.261Z,15.01
2018-08-17T02:20:17.260Z,14.98
2018-08-17T02:21:17.236Z,15.03
2018-08-17T02:22:17.239Z,14.97
2018-08-17T02:23:17.205Z,15.00
2018-08-17T02:24:17.285Z,14.98
2018-08-17T02:25:17.245Z,14.98
2018-08-17T02:26:17.216Z,15.04
2018-08-17T02:27:17.192Z,15.04
2018-08-17T02:28:17.144Z,15.05
2018-08-17T02:29:17.129Z,15.03
2018-08-17T02:30:17.125Z,15.01
2018-08-17T02:31:17.114Z,15.09
2018-08-17T02:32:17.133Z,15.07
2018-08-17T02:33:17.103Z,15.05
2018-08-17T02:34:17.148Z,15.09
2018-08-17T02:35:17.098Z,15.07
2018-08-17T02:36:17.060Z,15.03
2018-08-17T02:37:17.069Z,14.86
2018-08-17T02:38:17.056Z,14.90
2018-08-17T02:39:17.049Z,14.90
2018-08-17T02:40:17.052Z,14.82
2018-08-17T02:41:17.010Z,14.79
2018-08-17T02:42:17.025Z,14.72
2018-08-17T02:43:17.040Z,14.66
2018-08-17T02:44:17.005Z,14.66
2018-08-17T02:45:17.000Z,14.66
2018-08-17T02:46:16.972Z,14.66
2018-08-17T02:47:16.955Z,14.59
2018-08-17T02:48:16.920Z,14.57
2018-08-17T02:49:16.914Z,14.61
2018-08-17T02:50:16.954Z,14.52
2018-08-17T02:51:16.910Z,14.52
2018-08-17T02:52:16.952Z,14.42
2018-08-17T02:53:16.913Z,14.48
2018-08-17T02:54:16.856Z,14.53
2018-08-17T02:55:16.895Z,14.46
2018-08-17T02:56:16.833Z,14.46
2018-08-17T02:57:16.876Z,14.45
2018-08-17T02:58:16.813Z,14.49
2018-08-17T02:59:16.819Z,14.45
2018-08-17T03:00:16.805Z,14.44
2018-08-17T03:01:16.804Z,14.46
2018-08-17T03:02:16.799Z,14.39
2018-08-17T03:03:16.778Z,14.39
2018-08-17T03:04:16.755Z,14.31
2018-08-17T03:05:16.736Z,14.29
2018-08-17T03:06:16.764Z,14.16
2018-08-17T03:07:16.804Z,14.16
2018-08-17T03:08:16.751Z,14.12
2018-08-17T03:09:16.698Z,14.17
2018-08-17T03:10:16.690Z,14.27
2018-08-17T03:11:16.710Z,14.31
2018-08-17T03:12:16.707Z,14.29
2018-08-17T03:13:16.757Z,14.24
2018-08-17T03:14:16.671Z,14.23
2018-08-17T03:15:16.625Z,14.27
2018-08-17T03:16:16.632Z,14.26
2018-08-17T03:17:16.631Z,14.21
2018-08-17T03:18:16.630Z,14.27
2018-08-17T03:19:16.620Z,14.29
2018-08-17T03:20:16.604Z,14.38
2018-08-17T03:21:16.574Z,14.24
2018-08-17T03:22:16.578Z,14.30
2018-08-17T03:23:16.627Z,14.27
2018-08-17T03:24:16.588Z,14.27
2018-08-17T03:25:16.536Z,14.30
2018-08-17T03:26:16.551Z,14.36
2018-08-17T03:27:16.496Z,14.41
2018-08-17T03:28:16.544Z,14.38
2018-08-17T03:29:16.485Z,14.36
2018-08-17T03:30:16.466Z,14.52
2018-08-17T03:31:16.456Z,14.44
2018-08-17T03:32:16.435Z,14.48
2018-08-17T03:33:16.480Z,14.49
2018-08-17T03:34:16.461Z,14.48
2018-08-17T03:35:16.476Z,14.46
2018-08-17T03:36:16.415Z,14.49
2018-08-17T03:37:16.479Z,14.49
2018-08-17T03:38:16.493Z,14.44
2018-08-17T03:39:16.391Z,14.39
2018-08-17T03:40:16.374Z,14.39
2018-08-17T03:41:16.382Z,14.46
2018-08-17T03:42:16.354Z,14.36
2018-08-17T03:43:16.342Z,14.41
2018-08-17T03:44:16.378Z,14.39
2018-08-17T03:45:16.330Z,14.49
2018-08-17T03:46:16.368Z,14.45
2018-08-17T03:47:16.280Z,14.36
2018-08-17T03:48:16.322Z,14.46
2018-08-17T03:49:16.288Z,14.45
2018-08-17T03:50:16.274Z,14.54
2018-08-17T03:51:16.252Z,14.52
2018-08-17T03:52:16.284Z,14.49
2018-08-17T03:53:16.271Z,14.49
2018-08-17T03:54:16.196Z,14.35
2018-08-17T03:55:16.224Z,14.53
2018-08-17T03:56:16.212Z,14.49
2018-08-17T03:57:16.186Z,14.35
2018-08-17T03:58:16.192Z,14.38
2018-08-17T03:59:16.160Z,14.45
2018-08-17T04:00:16.133Z,14.35
2018-08-17T04:01:16.122Z,14.26
2018-08-17T04:02:16.124Z,14.39
2018-08-17T04:03:16.133Z,14.48
2018-08-17T04:04:16.094Z,14.42
2018-08-17T04:05:16.090Z,14.36
2018-08-17T04:06:16.087Z,14.41
2018-08-17T04:07:16.052Z,14.38
2018-08-17T04:08:16.080Z,14.39
2018-08-17T04:09:16.068Z,14.39
2018-08-17T04:10:16.056Z,14.35
2018-08-17T04:11:16.076Z,14.35
2018-08-17T04:12:16.080Z,14.27
2018-08-17T04:13:16.041Z,14.27
2018-08-17T04:14:16.012Z,14.26
2018-08-17T04:15:16.003Z,14.34
2018-08-17T04:16:16.040Z,14.21
2018-08-17T04:17:15.964Z,14.29
2018-08-17T04:18:15.940Z,14.24
2018-08-17T04:19:15.943Z,14.26
2018-08-17T04:20:16.007Z,14.17
2018-08-17T04:21:15.903Z,14.23
2018-08-17T04:22:15.930Z,14.20
2018-08-17T04:23:15.936Z,14.19
2018-08-17T04:24:15.933Z,14.09
2018-08-17T04:25:15.923Z,14.11
2018-08-17T04:26:15.856Z,14.11
2018-08-17T04:27:15.886Z,14.21
2018-08-17T04:28:15.871Z,14.27
2018-08-17T04:29:15.844Z,14.31
2018-08-17T04:30:15.820Z,14.24
2018-08-17T04:31:15.795Z,14.26
2018-08-17T04:32:15.813Z,14.23
2018-08-17T04:33:15.838Z,14.35
2018-08-17T04:34:15.824Z,14.30
2018-08-17T04:35:15.772Z,14.27
2018-08-17T04:36:15.749Z,14.45
2018-08-17T04:37:15.745Z,14.38
2018-08-17T04:38:15.737Z,14.39
2018-08-17T04:39:15.774Z,14.30
2018-08-17T04:40:15.704Z,14.31
2018-08-17T04:41:15.691Z,14.26
2018-08-17T04:42:15.705Z,14.24
2018-08-17T04:43:15.666Z,14.21
2018-08-17T04:44:15.689Z,14.24
2018-08-17T04:45:15.639Z,14.54
2018-08-17T04:46:15.662Z,14.94
2018-08-17T04:47:15.623Z,15.37
2018-08-17T04:48:15.619Z,15.86
2018-08-17T04:49:15.641Z,16.25
2018-08-17T04:50:15.592Z,16.50
2018-08-17T04:51:15.575Z,16.78
2018-08-17T04:52:15.589Z,17.10
2018-08-17T04:53:15.594Z,17.40
2018-08-17T04:54:15.574Z,17.51
2018-08-17T04:55:15.539Z,17.62
2018-08-17T04:56:15.554Z,17.58
2018-08-17T04:57:15.579Z,17.76
2018-08-17T04:58:15.530Z,17.84
2018-08-17T04:59:15.526Z,17.91
2018-08-17T05:00:15.509Z,17.94
2018-08-17T05:01:15.508Z,17.96
2018-08-17T05:02:15.492Z,17.98
2018-08-17T05:03:15.488Z,18.07
2018-08-17T05:04:15.438Z,18.10
2018-08-17T05:05:15.456Z,18.05
2018-08-17T05:06:15.423Z,18.14
2018-08-17T05:07:15.455Z,18.21
2018-08-17T05:08:15.417Z,18.21
2018-08-17T05:09:15.381Z,18.29
2018-08-17T05:10:15.426Z,18.36
2018-08-17T05:11:15.379Z,18.34
2018-08-17T05:12:15.355Z,18.28
2018-08-17T05:13:15.337Z,18.25
2018-08-17T05:14:15.380Z,18.32
2018-08-17T05:15:15.361Z,18.29
2018-08-17T05:16:15.362Z,18.38
2018-08-17T05:17:15.313Z,18.34
2018-08-17T05:18:15.332Z,18.39
2018-08-17T05:19:15.298Z,18.49
2018-08-17T05:20:15.301Z,18.50
2018-08-17T05:21:15.272Z,18.49
2018-08-17T05:22:15.279Z,18.38
2018-08-17T05:23:15.338Z,18.29
2018-08-17T05:24:15.222Z,18.25
2018-08-17T05:25:15.226Z,18.29
2018-08-17T05:26:15.194Z,18.25
2018-08-17T05:27:15.204Z,18.14
2018-08-17T05:28:15.198Z,18.10
2018-08-17T05:29:15.178Z,18.13
2018-08-17T05:30:15.226Z,18.01
2018-08-17T05:31:15.177Z,17.89
2018-08-17T05:32:15.173Z,17.76
2018-08-17T05:33:15.128Z,17.76
2018-08-17T05:34:15.141Z,17.70
2018-08-17T05:35:15.117Z,17.68
2018-08-17T05:36:15.089Z,17.76
2018-08-17T05:37:15.100Z,17.71
2018-08-17T05:38:15.102Z,17.79
2018-08-17T05:39:15.079Z,17.74
2018-08-17T05:40:15.113Z,17.87
2018-08-17T05:41:15.034Z,18.01
2018-08-17T05:42:15.064Z,18.23
2018-08-17T05:43:15.061Z,18.50
2018-08-17T05:44:15.034Z,18.75
2018-08-17T05:45:15.012Z,18.87
2018-08-17T05:46:14.986Z,19.12
2018-08-17T05:47:14.992Z,19.16
2018-08-17T05:48:14.960Z,19.35
2018-08-17T05:49:14.956Z,19.43
2018-08-17T05:50:14.984Z,19.53
2018-08-17T05:51:14.973Z,19.55
2018-08-17T05:52:14.926Z,19.76
2018-08-17T05:53:14.937Z,19.78
2018-08-17T05:54:14.951Z,19.89
2018-08-17T05:55:14.901Z,20.07
2018-08-17T05:56:14.920Z,20.15
2018-08-17T05:57:14.879Z,20.26
2018-08-17T05:58:14.850Z,20.27
2018-08-17T05:59:14.840Z,20.40
2018-08-17T06:00:14.883Z,20.51
2018-08-17T06:01:14.818Z,20.54
2018-08-17T06:02:14.832Z,20.51
2018-08-17T06:03:14.837Z,20.75
2018-08-17T06:04:14.809Z,21.03
2018-08-17T06:05:14.794Z,21.49
2018-08-17T06:06:14.795Z,22.23
2018-08-17T06:07:14.814Z,22.88
2018-08-17T06:08:14.799Z,23.35
2018-08-17T06:09:14.755Z,23.79
2018-08-17T06:10:14.743Z,23.92
2018-08-17T06:11:14.873Z,23.92
2018-08-17T06:12:14.701Z,24.06
2018-08-17T06:13:14.678Z,24.24
2018-08-17T06:14:14.684Z,23.89
2018-08-17T06:15:14.687Z,24.14
2018-08-17T06:16:14.703Z,24.26
2018-08-17T06:17:14.644Z,24.19
2018-08-17T06:18:14.642Z,24.39
2018-08-17T06:19:14.653Z,24.55
2018-08-17T06:20:14.640Z,24.74
2018-08-17T06:21:14.641Z,24.77
2018-08-17T06:22:14.584Z,24.64
2018-08-17T06:23:14.571Z,24.61
2018-08-17T06:24:14.571Z,24.68
2018-08-17T06:25:14.556Z,24.94
2018-08-17T06:26:14.576Z,25.07
2018-08-17T06:27:14.541Z,25.30
2018-08-17T06:28:14.610Z,25.59
2018-08-17T06:29:14.559Z,25.59
2018-08-17T06:30:14.519Z,25.71
2018-08-17T06:31:14.496Z,26.23
2018-08-17T06:32:14.510Z,26.41
2018-08-17T06:33:14.498Z,26.64
2018-08-17T06:34:14.483Z,25.91
2018-08-17T06:35:14.444Z,25.49
2018-08-17T06:36:14.563Z,25.35
2018-08-17T06:37:14.525Z,25.19
2018-08-17T06:38:14.415Z,25.41
2018-08-17T06:39:14.431Z,25.49
2018-08-17T06:40:14.381Z,25.57
2018-08-17T06:41:14.430Z,25.81
2018-08-17T06:42:14.379Z,26.34
2018-08-17T06:43:14.362Z,26.34
2018-08-17T06:44:14.373Z,26.36
2018-08-17T06:45:14.323Z,26.96
2018-08-17T06:46:14.348Z,27.05
2018-08-17T06:47:14.477Z,27.45
2018-08-17T06:48:14.602Z,27.93
2018-08-17T06:49:14.297Z,28.20
2018-08-17T06:50:14.279Z,27.49
2018-08-17T06:51:14.378Z,27.78
2018-08-17T06:52:14.261Z,27.91
2018-08-17T06:53:14.256Z,28.03
2018-08-17T06:54:14.286Z,28.13
2018-08-17T06:55:14.232Z,28.55
2018-08-17T06:56:14.216Z,28.85
2018-08-17T06:57:14.256Z,29.14
2018-08-17T06:58:14.179Z,29.15
2018-08-17T06:59:14.207Z,29.07
2018-08-17T07:00:14.178Z,29.21
2018-08-17T07:01:14.195Z,29.45
2018-08-17T07:02:14.138Z,29.41
2018-08-17T07:03:14.138Z,29.67
2018-08-17T07:04:14.117Z,29.78
2018-08-17T07:05:14.111Z,30.16
2018-08-17T07:06:14.116Z,30.19
2018-08-17T07:07:14.114Z,28.95
2018-08-17T07:08:14.103Z,27.77
2018-08-17T07:09:14.159Z,26.73
2018-08-17T07:10:14.063Z,25.85
2018-08-17T07:11:14.045Z,25.48
2018-08-17T07:12:14.045Z,25.42
2018-08-17T07:13:14.030Z,25.24
2018-08-17T07:14:14.055Z,25.26
2018-08-17T07:15:14.014Z,25.26
2018-08-17T07:16:13.997Z,25.31
2018-08-17T07:17:14.010Z,25.42
2018-08-17T07:18:13.996Z,25.49
2018-08-17T07:19:13.960Z,25.59
2018-08-17T07:20:13.947Z,25.81
2018-08-17T07:21:14.013Z,26.00
2018-08-17T07:22:13.948Z,26.09
2018-08-17T07:23:13.919Z,26.19
2018-08-17T07:24:13.948Z,27.05
2018-08-17T07:25:13.938Z,27.16
2018-08-17T07:26:13.903Z,28.01
2018-08-17T07:27:15.600Z,28.33
2018-08-17T07:28:13.931Z,28.69
2018-08-17T07:29:13.925Z,28.54
2018-08-17T07:30:13.855Z,27.96
2018-08-17T07:31:13.832Z,27.76
2018-08-17T07:32:13.865Z,27.71
2018-08-17T07:33:13.806Z,28.32
2018-08-17T07:34:13.804Z,29.00
2018-08-17T07:35:13.819Z,29.70
2018-08-17T07:36:13.778Z,30.10
2018-08-17T07:37:13.781Z,29.42
2018-08-17T07:38:13.782Z,29.11
2018-08-17T07:39:13.783Z,28.98
2018-08-17T07:40:13.770Z,29.48
2018-08-17T07:41:13.763Z,30.49
2018-08-17T07:42:13.763Z,30.96
2018-08-17T07:43:13.698Z,31.59
2018-08-17T07:44:13.816Z,31.57
2018-08-17T07:45:13.685Z,32.19
2018-08-17T07:46:13.688Z,32.66
2018-08-17T07:47:14.387Z,33.18
2018-08-17T07:48:13.803Z,33.38
2018-08-17T07:49:13.634Z,33.03
2018-08-17T07:50:13.622Z,32.25
2018-08-17T07:51:13.616Z,31.88
2018-08-17T07:52:13.660Z,31.69
2018-08-17T07:53:13.589Z,30.15
2018-08-17T07:54:13.590Z,30.42
2018-08-17T07:55:13.575Z,31.23
2018-08-17T07:56:13.559Z,31.97
2018-08-17T07:57:13.565Z,32.05
2018-08-17T07:58:13.539Z,31.75
2018-08-17T07:59:13.561Z,31.84
2018-08-17T08:00:13.523Z,31.60
2018-08-17T08:01:13.518Z,31.41
2018-08-17T08:02:13.511Z,31.53
2018-08-17T08:03:13.490Z,31.46
2018-08-17T08:04:13.505Z,31.95
2018-08-17T08:05:13.481Z,32.39
2018-08-17T08:06:13.504Z,32.44
2018-08-17T08:07:13.468Z,32.51
2018-08-17T08:08:13.431Z,32.76
2018-08-17T08:09:13.426Z,32.63
2018-08-17T08:10:13.412Z,32.22
2018-08-17T08:11:13.449Z,32.78
2018-08-17T08:12:13.433Z,33.38
2018-08-17T08:13:13.399Z,33.86
2018-08-17T08:14:13.371Z,33.93
2018-08-17T08:15:13.359Z,34.16
2018-08-17T08:16:13.348Z,33.84
2018-08-17T08:17:13.338Z,32.65
2018-08-17T08:18:13.398Z,32.81
2018-08-17T08:19:13.362Z,33.17
2018-08-17T08:20:13.353Z,33.17
2018-08-17T08:21:13.304Z,33.45
2018-08-17T08:22:13.288Z,33.66
2018-08-17T08:23:13.294Z,33.97
2018-08-17T08:24:13.264Z,33.82
2018-08-17T08:25:13.377Z,34.14
2018-08-17T08:26:13.243Z,34.53
2018-08-17T08:27:13.233Z,34.58
2018-08-17T08:28:13.241Z,34.12
2018-08-17T08:29:13.223Z,33.97
2018-08-17T08:30:13.200Z,34.18
2018-08-17T08:31:13.257Z,34.33
2018-08-17T08:32:13.187Z,34.42
2018-08-17T08:33:13.187Z,34.11
2018-08-17T08:34:13.157Z,34.11
2018-08-17T08:35:13.145Z,33.43
2018-08-17T08:36:13.138Z,33.50
2018-08-17T08:37:13.149Z,33.82
2018-08-17T08:38:13.131Z,34.23
2018-08-17T08:39:13.106Z,33.93
2018-08-17T08:40:13.098Z,33.81
2018-08-17T08:41:13.092Z,34.00
2018-08-17T08:42:13.076Z,33.99
2018-08-17T08:43:13.107Z,33.62
2018-08-17T08:44:13.082Z,33.96
2018-08-17T08:45:13.044Z,34.34
2018-08-17T08:46:13.054Z,34.40
2018-08-17T08:47:13.028Z,34.28
2018-08-17T08:48:13.025Z,34.06
2018-08-17T08:49:12.998Z,33.87
2018-08-17T08:50:13.050Z,33.50
2018-08-17T08:51:12.975Z,33.07
2018-08-17T08:52:12.971Z,33.05
2018-08-17T08:53:12.987Z,33.21
2018-08-17T08:54:12.951Z,33.50
2018-08-17T08:55:12.940Z,33.22
2018-08-17T08:56:12.951Z,33.15
2018-08-17T08:57:12.917Z,33.43
2018-08-17T08:58:12.920Z,34.06
2018-08-17T08:59:12.895Z,34.45
2018-08-17T09:00:12.892Z,34.84
2018-08-17T09:01:12.872Z,34.23
2018-08-17T09:02:12.888Z,34.27
2018-08-17T09:03:12.866Z,34.36
2018-08-17T09:04:12.842Z,34.75
2018-08-17T09:05:12.835Z,35.10
2018-08-17T09:06:12.822Z,34.88
2018-08-17T09:07:12.819Z,35.42
2018-08-17T09:08:12.913Z,35.83
2018-08-17T09:09:12.798Z,36.13
2018-08-17T09:10:12.778Z,36.23
2018-08-17T09:11:12.771Z,36.48
2018-08-17T09:12:12.771Z,36.44
2018-08-17T09:13:12.745Z,35.93
2018-08-17T09:14:12.788Z,35.37
2018-08-17T09:15:12.733Z,35.52
2018-08-17T09:16:12.716Z,35.52
2018-08-17T09:17:12.708Z,35.52
2018-08-17T09:18:12.700Z,35.65
2018-08-17T09:19:12.706Z,35.62
2018-08-17T09:20:12.770Z,35.54
2018-08-17T09:21:12.670Z,35.02
2018-08-17T09:22:12.667Z,35.15
2018-08-17T09:23:12.645Z,35.18
2018-08-17T09:24:12.646Z,35.09
2018-08-17T09:25:12.625Z,35.06
2018-08-17T09:26:12.631Z,35.55
2018-08-17T09:27:12.620Z,35.89
2018-08-17T09:28:12.591Z,35.78
2018-08-17T09:29:12.658Z,35.92
2018-08-17T09:30:12.664Z,35.59
2018-08-17T09:31:12.561Z,35.50
2018-08-17T09:32:12.556Z,35.64
2018-08-17T09:33:12.554Z,35.55
2018-08-17T09:34:12.591Z,34.99
2018-08-17T09:35:12.565Z,34.34
2018-08-17T09:36:12.565Z,34.00
2018-08-17T09:37:12.514Z,33.84
2018-08-17T09:38:12.499Z,34.31
2018-08-17T09:39:12.733Z,34.87
2018-08-17T09:40:12.469Z,35.55
2018-08-17T09:41:12.464Z,35.17
2018-08-17T09:42:12.574Z,35.27
2018-08-17T09:43:12.450Z,35.42
2018-08-17T09:44:12.466Z,35.37
2018-08-17T09:45:12.427Z,35.80
2018-08-17T09:46:12.434Z,35.96
2018-08-17T09:47:12.416Z,35.74
2018-08-17T09:48:12.425Z,35.95
2018-08-17T09:49:12.412Z,36.25
2018-08-17T09:50:12.372Z,36.48
2018-08-17T09:51:12.388Z,36.87
2018-08-17T09:52:12.381Z,37.21
2018-08-17T09:53:12.381Z,36.93
2018-08-17T09:54:12.351Z,36.94
2018-08-17T09:55:12.324Z,37.13
2018-08-17T09:56:12.313Z,37.45
2018-08-17T09:57:12.305Z,37.78
2018-08-17T09:58:12.320Z,37.70
2018-08-17T09:59:12.303Z,37.05
2018-08-17T10:00:12.271Z,36.86
2018-08-17T10:01:12.267Z,36.48
2018-08-17T10:02:12.253Z,36.44
2018-08-17T10:03:12.242Z,36.43
2018-08-17T10:04:12.303Z,36.27
2018-08-17T10:05:12.252Z,36.16
2018-08-17T10:06:12.250Z,35.98
2018-08-17T10:07:12.229Z,35.92
2018-08-17T10:08:12.239Z,36.28
2018-08-17T10:09:12.241Z,36.60
2018-08-17T10:10:12.178Z,36.94
2018-08-17T10:11:12.165Z,36.86
2018-08-17T10:12:12.155Z,36.79
2018-08-17T10:13:12.149Z,37.27
2018-08-17T10:14:12.136Z,37.46
2018-08-17T10:15:12.166Z,37.63
2018-08-17T10:16:12.133Z,37.30
2018-08-17T10:17:12.149Z,36.89
2018-08-17T10:18:12.169Z,36.11
2018-08-17T10:19:12.085Z,36.38
2018-08-17T10:20:12.111Z,36.62
2018-08-17T10:21:12.204Z,36.84
2018-08-17T10:22:12.167Z,37.08
2018-08-17T10:23:12.049Z,37.23
2018-08-17T10:24:12.071Z,37.50
2018-08-17T10:25:12.101Z,37.45
2018-08-17T10:26:12.024Z,37.65
2018-08-17T10:27:12.010Z,37.38
2018-08-17T10:28:12.004Z,37.60
2018-08-17T10:29:11.991Z,37.28
2018-08-17T10:30:11.994Z,36.94
2018-08-17T10:31:12.017Z,36.86
2018-08-17T10:32:11.987Z,37.47
2018-08-17T10:33:11.978Z,38.10
2018-08-17T10:34:11.944Z,38.50
2018-08-17T10:35:11.959Z,38.86
2018-08-17T10:36:11.927Z,38.52
2018-08-17T10:37:11.913Z,38.41
2018-08-17T10:38:11.908Z,38.53
2018-08-17T10:39:11.943Z,38.52
2018-08-17T10:40:11.919Z,38.04
2018-08-17T10:41:11.881Z,38.07
2018-08-17T10:42:11.870Z,37.72
2018-08-17T10:43:11.861Z,37.56
2018-08-17T10:44:11.853Z,37.90
2018-08-17T10:45:11.876Z,37.77
2018-08-17T10:46:11.859Z,37.45
2018-08-17T10:47:11.852Z,36.71
2018-08-17T10:48:11.835Z,36.53
2018-08-17T10:49:11.894Z,36.71
2018-08-17T10:50:11.856Z,36.48
2018-08-17T10:51:11.814Z,36.16
2018-08-17T10:52:11.771Z,36.15
2018-08-17T10:53:11.784Z,36.48
2018-08-17T10:54:11.756Z,36.35
2018-08-17T10:55:11.759Z,36.46
2018-08-17T10:56:11.755Z,36.68
2018-08-17T10:57:11.760Z,36.79
2018-08-17T10:58:11.714Z,36.96
2018-08-17T10:59:11.706Z,37.12
2018-08-17T11:00:11.710Z,37.53
2018-08-17T11:01:11.691Z,37.62
2018-08-17T11:02:11.721Z,37.72
2018-08-17T11:03:11.669Z,37.68
2018-08-17T11:04:11.667Z,37.05
2018-08-17T11:05:11.662Z,36.91
2018-08-17T11:06:11.640Z,37.23
2018-08-17T11:07:11.646Z,37.62
2018-08-17T11:08:11.624Z,37.70
2018-08-17T11:09:11.696Z,37.49
2018-08-17T11:10:11.635Z,37.42
2018-08-17T11:11:11.593Z,37.72
2018-08-17T11:12:11.602Z,37.54
2018-08-17T11:13:11.579Z,37.40
2018-08-17T11:14:11.570Z,37.58
2018-08-17T11:15:11.607Z,37.77
2018-08-17T11:16:11.567Z,38.04
2018-08-17T11:17:11.542Z,38.09
2018-08-17T11:18:11.538Z,38.02
2018-08-17T11:19:11.522Z,36.96
2018-08-17T11:20:11.520Z,36.56
2018-08-17T11:21:11.574Z,36.40
2018-08-17T11:22:11.503Z,36.13
2018-08-17T11:23:11.485Z,35.95
2018-08-17T11:24:11.483Z,35.69
2018-08-17T11:25:11.487Z,36.12
2018-08-17T11:26:11.484Z,36.43
2018-08-17T11:27:11.511Z,36.84
2018-08-17T11:28:11.456Z,36.69
2018-08-17T11:29:11.459Z,36.82
2018-08-17T11:30:11.425Z,36.44
2018-08-17T11:31:11.448Z,36.56
2018-08-17T11:32:11.431Z,37.02
2018-08-17T11:33:11.492Z,37.18
2018-08-17T11:34:11.440Z,37.35
2018-08-17T11:35:11.402Z,36.48
2018-08-17T11:36:11.402Z,36.31
2018-08-17T11:37:11.387Z,36.78
2018-08-17T11:38:11.362Z,36.97
2018-08-17T11:39:11.362Z,37.60
2018-08-17T11:40:11.344Z,38.04
2018-08-17T11:41:11.412Z,38.24
2018-08-17T11:42:11.392Z,38.68
2018-08-17T11:43:11.316Z,38.60
2018-08-17T11:44:11.326Z,37.84
2018-08-17T11:45:11.397Z,37.73
2018-08-17T11:46:11.420Z,37.16
2018-08-17T11:47:11.422Z,37.45
2018-08-17T11:48:11.381Z,37.84
2018-08-17T11:49:11.265Z,37.25
2018-08-17T11:50:11.263Z,37.40
2018-08-17T11:51:11.263Z,36.83
2018-08-17T11:52:11.293Z,36.08
2018-08-17T11:53:11.230Z,35.80
2018-08-17T11:54:11.230Z,36.35
2018-08-17T11:55:11.227Z,36.68
2018-08-17T11:56:11.221Z,36.44
2018-08-17T11:57:11.262Z,36.21
2018-08-17T11:58:11.189Z,35.95
2018-08-17T11:59:11.191Z,36.19
2018-08-17T12:00:11.174Z,36.08
2018-08-17T12:01:11.248Z,36.28
2018-08-17T12:02:11.159Z,36.75
2018-08-17T12:03:11.147Z,37.23
2018-08-17T12:04:11.173Z,37.38
2018-08-17T12:05:11.138Z,37.35
2018-08-17T12:06:11.138Z,36.82
2018-08-17T12:07:11.116Z,36.12
2018-08-17T12:08:11.194Z,36.46
2018-08-17T12:09:11.102Z,37.04
2018-08-17T12:10:11.145Z,37.39
2018-08-17T12:11:11.097Z,37.69
2018-08-17T12:12:11.074Z,37.53
2018-08-17T12:13:11.064Z,37.59
2018-08-17T12:14:11.055Z,37.84
2018-08-17T12:15:11.054Z,38.00
2018-08-17T12:16:11.117Z,38.02
2018-08-17T12:17:11.033Z,37.82
2018-08-17T12:18:11.028Z,37.23
2018-08-17T12:19:11.068Z,36.68
2018-08-17T12:20:11.002Z,35.66
2018-08-17T12:21:11.032Z,35.13
2018-08-17T12:22:11.026Z,34.61
2018-08-17T12:23:11.025Z,34.12
2018-08-17T12:24:11.082Z,33.97
2018-08-17T12:25:11.114Z,33.66
2018-08-17T12:26:10.977Z,33.44
2018-08-17T12:27:10.935Z,33.20
2018-08-17T12:28:10.925Z,32.76
2018-08-17T12:29:17.117Z,32.35
2018-08-17T12:30:10.908Z,32.25
2018-08-17T12:31:10.965Z,32.16
2018-08-17T12:32:10.954Z,32.06
2018-08-17T12:33:10.879Z,31.87
2018-08-17T12:34:10.867Z,31.71
2018-08-17T12:35:10.915Z,31.49
2018-08-17T12:36:10.850Z,31.40
2018-08-17T12:37:10.872Z,31.23
2018-08-17T12:38:10.838Z,31.12
2018-08-17T12:39:10.821Z,30.93
2018-08-17T12:40:10.912Z,30.79
2018-08-17T12:41:10.862Z,30.86
2018-08-17T12:42:10.818Z,30.81
2018-08-17T12:43:10.818Z,30.79
2018-08-17T12:44:10.793Z,30.79
2018-08-17T12:45:10.779Z,30.81
2018-08-17T12:46:10.752Z,30.63
2018-08-17T12:47:10.762Z,30.63
2018-08-17T12:48:10.752Z,30.40
2018-08-17T12:49:10.743Z,30.30
2018-08-17T12:50:10.798Z,30.08
2018-08-17T12:51:10.746Z,29.73
2018-08-17T12:52:10.709Z,29.54